createdAt,value
2022-09-21T00:01:09.943Z,3.20
2022-09-21T00:03:37.811Z,3.33
2022-09-21T00:06:09.187Z,2.05
2022-09-21T00:08:36.770Z,3.28
2022-09-21T00:11:06.164Z,3.28
2022-09-21T00:13:35.167Z,2.88
2022-09-21T00:16:05.977Z,1.85
2022-09-21T00:18:33.101Z,2.78
2022-09-21T00:21:00.151Z,1.75
2022-09-21T00:23:27.302Z,3.05
2022-09-21T00:26:04.926Z,2.17
2022-09-21T00:28:32.174Z,2.42
2022-09-21T00:31:05.250Z,3.15
2022-09-21T00:33:32.473Z,5.35
2022-09-21T00:36:05.407Z,3.78
2022-09-21T00:38:33.155Z,1.88
2022-09-21T00:41:00.374Z,2.15
2022-09-21T00:43:28.006Z,2.20
2022-09-21T00:46:02.737Z,2.55
2022-09-21T00:48:30.367Z,2.47
2022-09-21T00:51:02.789Z,3.33
2022-09-21T00:53:32.213Z,5.10
2022-09-21T00:56:01.075Z,1.90
2022-09-21T00:58:33.665Z,1.45
2022-09-21T01:01:01.572Z,2.45
2022-09-21T01:03:31.430Z,4.38
2022-09-21T01:05:58.686Z,1.75
2022-09-21T01:08:27.752Z,1.20
2022-09-21T01:11:11.633Z,3.92
2022-09-21T01:13:53.942Z,3.35
2022-09-21T01:16:24.428Z,2.05
2022-09-21T01:19:18.459Z,1.67
2022-09-21T01:22:11.557Z,3.40
2022-09-21T01:24:47.151Z,1.85
2022-09-21T01:27:38.289Z,3.00
2022-09-21T01:30:11.982Z,1.58
2022-09-21T01:32:44.984Z,1.17
2022-09-21T01:35:15.911Z,1.67
2022-09-21T01:37:49.557Z,1.48
2022-09-21T01:40:25.799Z,2.75
2022-09-21T01:42:55.764Z,1.45
2022-09-21T01:45:32.196Z,2.58
2022-09-21T01:48:02.263Z,1.90
2022-09-21T01:50:35.675Z,3.38
2022-09-21T01:53:10.507Z,1.85
2022-09-21T01:55:44.772Z,2.10
2022-09-21T01:58:19.243Z,2.20
2022-09-21T02:00:52.259Z,3.58
2022-09-21T02:03:34.833Z,3.42
2022-09-21T02:06:03.616Z,3.05
2022-09-21T02:08:32.392Z,2.28
2022-09-21T02:11:02.209Z,2.10
2022-09-21T02:13:34.429Z,3.10
2022-09-21T02:16:16.855Z,2.20
2022-09-21T02:19:22.216Z,7.45
2022-09-21T02:22:05.223Z,2.33
2022-09-21T02:24:55.675Z,3.70
2022-09-21T02:28:02.459Z,2.63
2022-09-21T02:30:33.105Z,2.63
2022-09-21T02:33:24.542Z,1.85
2022-09-21T02:36:01.427Z,2.65
2022-09-21T02:38:47.710Z,4.45
2022-09-21T02:41:24.126Z,3.17
2022-09-21T02:44:01.223Z,4.63
2022-09-21T02:46:34.847Z,5.03
2022-09-21T02:49:09.357Z,2.90
2022-09-21T02:51:43.234Z,2.35
2022-09-21T02:54:14.150Z,2.17
2022-09-21T02:56:42.539Z,2.17
2022-09-21T02:59:10.933Z,3.40
2022-09-21T03:01:40.655Z,4.00
2022-09-21T03:04:08.399Z,5.15
2022-09-21T03:06:35.730Z,1.73
2022-09-21T03:09:03.083Z,3.25
2022-09-21T03:11:30.540Z,3.58
2022-09-21T03:13:57.708Z,3.90
2022-09-21T03:16:25.698Z,3.60
2022-09-21T03:18:52.994Z,3.97
2022-09-21T03:21:20.201Z,4.30
2022-09-21T03:23:47.443Z,1.50
2022-09-21T03:26:14.589Z,2.30
2022-09-21T03:28:41.755Z,1.50
2022-09-21T03:31:09.259Z,2.35
2022-09-21T03:33:36.966Z,1.15
2022-09-21T03:36:04.284Z,1.98
2022-09-21T03:38:31.378Z,3.70
2022-09-21T03:40:58.455Z,3.10
2022-09-21T03:43:25.680Z,3.58
2022-09-21T03:45:53.597Z,2.25
2022-09-21T03:48:21.693Z,5.20
2022-09-21T03:50:49.014Z,3.60
2022-09-21T03:53:16.280Z,2.67
2022-09-21T03:55:43.722Z,8.27
2022-09-21T03:58:10.890Z,3.50
2022-09-21T04:00:39.317Z,4.70
2022-09-21T04:03:06.809Z,4.30
2022-09-21T04:05:33.911Z,3.03
2022-09-21T04:08:02.322Z,6.95
2022-09-21T04:10:32.907Z,4.68
2022-09-21T04:13:01.529Z,2.70
2022-09-21T04:15:29.615Z,2.75
2022-09-21T04:17:57.676Z,3.10
2022-09-21T04:20:25.059Z,3.13
2022-09-21T04:22:52.661Z,2.20
2022-09-21T04:25:20.757Z,4.55
2022-09-21T04:27:48.367Z,2.40
2022-09-21T04:30:16.772Z,3.47
2022-09-21T04:32:44.505Z,2.28
2022-09-21T04:35:11.808Z,3.08
2022-09-21T04:37:39.051Z,3.13
2022-09-21T04:40:07.164Z,2.38
2022-09-21T04:42:34.423Z,2.25
2022-09-21T04:45:01.556Z,2.70
2022-09-21T04:47:31.033Z,3.15
2022-09-21T04:49:58.106Z,1.88
2022-09-21T04:52:25.807Z,3.72
2022-09-21T04:54:53.258Z,2.55
2022-09-21T04:57:20.402Z,1.85
2022-09-21T04:59:47.429Z,2.45
2022-09-21T05:02:14.750Z,3.17
2022-09-21T05:04:41.729Z,5.03
2022-09-21T05:07:08.832Z,6.35
2022-09-21T05:09:55.880Z,7.85
2022-09-21T05:12:22.981Z,6.20
2022-09-21T05:14:50.020Z,7.65
2022-09-21T05:17:17.438Z,6.25
2022-09-21T05:19:44.468Z,4.82
2022-09-21T05:22:11.553Z,3.15
2022-09-21T05:24:38.638Z,5.30
2022-09-21T05:27:05.819Z,4.38
2022-09-21T05:29:33.281Z,5.72
2022-09-21T05:32:26.072Z,2.83
2022-09-21T05:35:01.883Z,5.40
2022-09-21T05:37:49.415Z,3.55
2022-09-21T05:40:16.964Z,2.28
2022-09-21T05:42:44.616Z,5.32
2022-09-21T05:45:17.588Z,3.58
2022-09-21T05:47:54.230Z,2.78
2022-09-21T05:50:32.184Z,2.25
2022-09-21T05:53:05.983Z,2.85
2022-09-21T05:55:40.578Z,2.60
2022-09-21T05:58:14.927Z,2.05
2022-09-21T06:01:08.329Z,2.28
2022-09-21T06:03:36.269Z,2.78
2022-09-21T06:06:03.545Z,2.83
2022-09-21T06:08:30.496Z,8.52
2022-09-21T06:10:57.661Z,3.78
2022-09-21T06:13:24.687Z,3.65
2022-09-21T06:15:51.767Z,2.35
2022-09-21T06:18:18.823Z,2.60
2022-09-21T06:20:46.483Z,2.47
2022-09-21T06:23:14.543Z,2.20
2022-09-21T06:25:41.879Z,2.13
2022-09-21T06:28:11.326Z,1.95
2022-09-21T06:30:42.125Z,1.50
2022-09-21T06:33:09.922Z,2.45
2022-09-21T06:35:37.640Z,3.58
2022-09-21T06:38:07.181Z,4.25
2022-09-21T06:40:37.245Z,4.38
2022-09-21T06:43:05.383Z,1.77
2022-09-21T06:45:32.813Z,4.20
2022-09-21T06:47:59.811Z,1.55
2022-09-21T06:50:27.158Z,3.55
2022-09-21T06:52:54.175Z,3.83
2022-09-21T06:55:21.341Z,1.73
2022-09-21T06:57:48.574Z,2.67
2022-09-21T07:00:15.876Z,3.47
2022-09-21T07:02:44.984Z,4.22
2022-09-21T07:05:12.877Z,2.55
2022-09-21T07:07:40.535Z,5.30
2022-09-21T07:10:14.548Z,2.97
2022-09-21T07:12:43.759Z,2.08
2022-09-21T07:15:11.088Z,1.80
2022-09-21T07:17:39.632Z,4.68
2022-09-21T07:20:08.237Z,5.43
2022-09-21T07:22:36.322Z,4.68
2022-09-21T07:25:05.565Z,2.33
2022-09-21T07:27:33.970Z,4.80
2022-09-21T07:30:01.016Z,1.50
2022-09-21T07:32:28.038Z,2.13
2022-09-21T07:34:56.571Z,2.20
2022-09-21T07:37:25.361Z,2.40
2022-09-21T07:39:53.677Z,1.88
2022-09-21T07:42:22.949Z,2.90
2022-09-21T07:44:51.212Z,2.08
2022-09-21T07:47:18.921Z,3.65
2022-09-21T07:49:47.167Z,1.30
2022-09-21T07:52:15.515Z,2.65
2022-09-21T07:54:42.699Z,1.67
2022-09-21T07:57:29.747Z,2.63
2022-09-21T07:59:58.253Z,1.52
2022-09-21T08:02:25.912Z,2.88
2022-09-21T08:04:54.123Z,1.60
2022-09-21T08:07:21.200Z,1.58
2022-09-21T08:09:49.591Z,1.80
2022-09-21T08:12:19.945Z,1.27
2022-09-21T08:14:48.750Z,2.90
2022-09-21T08:17:16.112Z,1.55
2022-09-21T08:19:43.406Z,3.22
2022-09-21T08:22:12.268Z,1.15
2022-09-21T08:24:43.549Z,2.70
2022-09-21T08:27:11.272Z,0.93
2022-09-21T08:29:38.522Z,2.70
2022-09-21T08:32:05.960Z,1.10
2022-09-21T08:34:33.108Z,0.68
2022-09-21T08:37:00.380Z,2.63
2022-09-21T08:39:27.751Z,1.13
2022-09-21T08:42:16.756Z,0.70
2022-09-21T08:44:51.632Z,0.77
2022-09-21T08:47:33.535Z,1.40
2022-09-21T08:50:03.512Z,1.33
2022-09-21T08:52:32.165Z,0.52
2022-09-21T08:55:05.991Z,1.08
2022-09-21T08:57:34.486Z,1.27
2022-09-21T09:00:02.974Z,1.13
2022-09-21T09:02:41.757Z,0.75
2022-09-21T09:05:24.819Z,0.77
2022-09-21T09:08:15.576Z,2.25
2022-09-21T09:10:56.659Z,1.08
2022-09-21T09:13:53.415Z,1.67
2022-09-21T09:16:48.570Z,0.70
2022-09-21T09:21:43.872Z,0.65
2022-09-21T09:24:30.623Z,0.30
2022-09-21T09:27:11.660Z,1.15
2022-09-21T09:30:12.297Z,1.77
2022-09-21T09:32:52.622Z,1.45
2022-09-21T09:35:45.352Z,1.52
2022-09-21T09:38:34.629Z,0.35
2022-09-21T09:41:09.227Z,0.65
2022-09-21T09:43:59.843Z,1.67
2022-09-21T09:46:47.133Z,0.77
2022-09-21T09:49:34.531Z,1.52
2022-09-21T09:52:02.271Z,3.15
2022-09-21T09:54:33.738Z,0.60
2022-09-21T09:57:06.052Z,1.75
2022-09-21T09:59:43.151Z,1.33
2022-09-21T10:02:31.065Z,0.50
2022-09-21T10:05:06.310Z,0.90
2022-09-21T10:07:43.486Z,1.38
2022-09-21T10:10:32.123Z,1.13
2022-09-21T10:13:35.837Z,1.35
2022-09-21T10:16:13.339Z,0.93
2022-09-21T10:18:47.617Z,0.65
2022-09-21T10:21:27.100Z,2.15
2022-09-21T10:24:00.349Z,1.23
2022-09-21T10:26:48.889Z,1.48
2022-09-21T10:29:21.816Z,1.45
2022-09-21T10:32:16.972Z,1.02
2022-09-21T10:35:01.046Z,1.88
2022-09-21T10:37:31.304Z,1.80
2022-09-21T10:39:58.432Z,2.20
2022-09-21T10:42:25.925Z,2.45
2022-09-21T10:45:05.331Z,1.80
2022-09-21T10:47:39.305Z,2.28
2022-09-21T10:50:21.600Z,2.58
2022-09-21T10:52:50.894Z,3.15
2022-09-21T10:55:21.780Z,2.50
2022-09-21T10:57:49.852Z,2.28
2022-09-21T11:00:25.749Z,1.25
2022-09-21T11:02:55.462Z,1.90
2022-09-21T11:05:25.704Z,2.33
2022-09-21T11:08:16.883Z,0.65
2022-09-21T11:10:52.052Z,1.13
2022-09-21T11:13:22.421Z,3.20
2022-09-21T11:15:58.037Z,1.15
2022-09-21T11:18:45.055Z,4.20
2022-09-21T11:21:51.992Z,1.23
2022-09-21T11:24:32.284Z,2.28
2022-09-21T11:27:10.836Z,0.98
2022-09-21T11:29:51.682Z,0.93
2022-09-21T11:32:30.642Z,0.50
2022-09-21T11:35:05.890Z,0.47
2022-09-21T11:38:02.550Z,0.63
2022-09-21T11:40:50.727Z,0.95
2022-09-21T11:43:41.222Z,2.00
2022-09-21T11:46:20.240Z,1.67
2022-09-21T11:48:54.973Z,0.98
2022-09-21T11:53:54.251Z,0.98
2022-09-21T11:56:48.968Z,0.93
2022-09-21T11:59:43.282Z,0.68
2022-09-21T12:02:52.115Z,1.90
2022-09-21T12:05:20.716Z,0.93
2022-09-21T12:07:59.910Z,0.93
2022-09-21T12:10:38.751Z,0.20
2022-09-21T12:13:31.043Z,0.40
2022-09-21T12:16:03.809Z,0.28
2022-09-21T12:18:32.669Z,2.17
2022-09-21T12:21:13.332Z,0.65
2022-09-21T12:23:48.955Z,1.23
2022-09-21T12:26:21.170Z,0.47
2022-09-21T12:29:02.493Z,0.52
2022-09-21T12:31:53.704Z,0.43
2022-09-21T12:34:26.549Z,0.75
2022-09-21T12:37:18.224Z,3.83
2022-09-21T12:40:09.923Z,3.30
2022-09-21T12:42:43.960Z,2.30
2022-09-21T12:45:16.469Z,0.80
2022-09-21T12:47:48.563Z,0.85
2022-09-21T12:50:21.218Z,2.60
2022-09-21T12:52:50.233Z,0.50
2022-09-21T12:55:44.562Z,2.08
2022-09-21T12:58:24.753Z,1.07
2022-09-21T13:01:06.132Z,0.32
2022-09-21T13:03:44.511Z,0.40
2022-09-21T13:06:43.162Z,0.93
2022-09-21T13:09:15.132Z,1.00
2022-09-21T13:11:56.889Z,0.45
2022-09-21T13:14:28.731Z,1.05
2022-09-21T13:17:00.465Z,0.57
2022-09-21T13:19:31.300Z,0.30
2022-09-21T13:22:19.975Z,0.43
2022-09-21T13:25:18.008Z,2.33
2022-09-21T13:28:00.913Z,0.95
2022-09-21T13:30:33.272Z,0.50
2022-09-21T13:33:01.821Z,0.63
2022-09-21T13:36:09.573Z,2.35
2022-09-21T13:38:44.172Z,0.40
2022-09-21T13:41:18.669Z,0.73
2022-09-21T13:44:05.998Z,0.35
2022-09-21T13:46:36.838Z,1.52
2022-09-21T13:49:11.555Z,1.13
2022-09-21T13:54:29.248Z,1.95
2022-09-21T13:57:18.260Z,0.60
2022-09-21T13:59:49.285Z,1.85
2022-09-21T14:02:36.241Z,1.13
2022-09-21T14:05:24.352Z,0.88
2022-09-21T14:08:20.509Z,0.77
2022-09-21T14:10:49.003Z,1.77
2022-09-21T14:13:37.181Z,0.73
2022-09-21T14:16:35.813Z,0.60
2022-09-21T14:19:26.962Z,1.48
2022-09-21T14:22:10.697Z,0.45
2022-09-21T14:24:42.723Z,0.73
2022-09-21T14:27:45.736Z,0.30
2022-09-21T14:30:33.862Z,5.25
2022-09-21T14:33:00.968Z,0.30
2022-09-21T14:35:34.723Z,1.55
2022-09-21T14:38:11.388Z,0.40
2022-09-21T14:40:45.675Z,0.20
2022-09-21T14:43:21.568Z,0.85
2022-09-21T14:46:11.934Z,0.93
2022-09-21T14:48:50.496Z,1.85
2022-09-21T14:52:04.355Z,0.32
2022-09-21T14:54:59.999Z,1.23
2022-09-21T14:57:44.275Z,0.85
2022-09-21T15:00:24.585Z,0.85
2022-09-21T15:03:20.836Z,0.22
2022-09-21T15:05:55.664Z,0.20
2022-09-21T15:09:03.524Z,0.30
2022-09-21T15:11:39.975Z,0.52
2022-09-21T15:14:37.140Z,0.52
2022-09-21T15:17:23.550Z,0.32
2022-09-21T15:19:51.233Z,0.73
2022-09-21T15:22:20.950Z,2.13
2022-09-21T15:24:54.971Z,1.20
2022-09-21T15:27:24.730Z,1.10
2022-09-21T15:29:54.230Z,0.80
2022-09-21T15:32:42.778Z,0.22
2022-09-21T15:35:29.790Z,0.30
2022-09-21T15:38:00.910Z,0.95
2022-09-21T15:40:32.807Z,0.90
2022-09-21T15:43:04.711Z,1.10
2022-09-21T15:45:51.456Z,1.65
2022-09-21T15:48:20.086Z,0.95
2022-09-21T15:50:58.250Z,4.25
2022-09-21T15:53:31.192Z,0.40
2022-09-21T15:56:01.075Z,2.20
2022-09-21T15:58:37.381Z,0.63
2022-09-21T16:01:11.509Z,0.93
2022-09-21T16:03:40.086Z,1.05
2022-09-21T16:06:35.277Z,0.50
2022-09-21T16:09:26.327Z,0.82
2022-09-21T16:11:54.319Z,2.95
2022-09-21T16:14:41.950Z,0.93
2022-09-21T16:17:11.546Z,0.38
2022-09-21T16:20:01.831Z,1.50
2022-09-21T16:22:47.639Z,2.47
2022-09-21T16:25:34.749Z,0.85
2022-09-21T16:28:09.623Z,1.23
2022-09-21T16:30:42.637Z,1.05
2022-09-21T16:33:38.249Z,0.70
2022-09-21T16:36:26.304Z,3.03
2022-09-21T16:38:54.127Z,6.32
2022-09-21T16:41:22.461Z,7.18
2022-09-21T16:43:50.948Z,6.25
2022-09-21T16:46:19.128Z,5.68
2022-09-21T16:48:46.308Z,3.92
2022-09-21T16:51:14.776Z,3.50
2022-09-21T16:53:42.042Z,5.45
2022-09-21T16:56:14.270Z,2.92
2022-09-21T16:58:43.725Z,2.80
2022-09-21T17:01:13.037Z,5.57
2022-09-21T17:03:40.560Z,3.42
2022-09-21T17:06:14.988Z,4.25
2022-09-21T17:08:42.431Z,5.70
2022-09-21T17:11:09.641Z,6.57
2022-09-21T17:13:37.918Z,6.03
2022-09-21T17:16:05.446Z,4.03
2022-09-21T17:18:32.492Z,6.20
2022-09-21T17:20:59.749Z,5.10
2022-09-21T17:23:29.329Z,4.15
2022-09-21T17:25:56.317Z,3.80
2022-09-21T17:28:26.223Z,5.65
2022-09-21T17:30:54.329Z,2.60
2022-09-21T17:33:21.592Z,2.90
2022-09-21T17:35:51.363Z,3.90
2022-09-21T17:38:18.649Z,4.07
2022-09-21T17:40:46.858Z,3.67
2022-09-21T17:43:13.965Z,5.65
2022-09-21T17:45:55.798Z,2.33
2022-09-21T17:48:23.338Z,4.28
2022-09-21T17:50:50.846Z,2.83
2022-09-21T17:53:34.729Z,3.03
2022-09-21T17:56:32.875Z,2.60
2022-09-21T17:59:03.699Z,3.40
2022-09-21T18:01:34.165Z,1.92
2022-09-21T18:04:02.138Z,3.28
2022-09-21T18:06:30.293Z,5.10
2022-09-21T18:08:58.167Z,10.73
2022-09-21T18:11:45.429Z,10.23
2022-09-21T18:14:17.491Z,8.75
2022-09-21T18:16:52.429Z,5.72
2022-09-21T18:19:31.283Z,13.65
2022-09-21T18:22:15.103Z,18.00
2022-09-21T18:24:43.475Z,12.95
2022-09-21T18:27:12.071Z,10.43
2022-09-21T18:29:41.427Z,7.85
2022-09-21T18:32:36.310Z,6.35
2022-09-21T18:35:28.335Z,4.68
2022-09-21T18:38:23.085Z,4.20
2022-09-21T18:40:59.428Z,6.35
2022-09-21T18:43:39.575Z,6.30
2022-09-21T18:46:13.019Z,4.72
2022-09-21T18:48:49.941Z,6.10
2022-09-21T18:51:41.359Z,4.90
2022-09-21T18:54:21.794Z,11.82
2022-09-21T18:56:49.692Z,6.78
2022-09-21T18:59:17.473Z,3.70
2022-09-21T19:01:49.119Z,5.43
2022-09-21T19:04:19.297Z,6.63
2022-09-21T19:07:10.741Z,6.78
2022-09-21T19:10:04.114Z,3.72
2022-09-21T19:12:51.820Z,7.22
2022-09-21T19:15:42.363Z,3.90
2022-09-21T19:18:17.835Z,4.43
2022-09-21T19:23:23.291Z,3.58
2022-09-21T19:25:59.391Z,3.42
2022-09-21T19:28:46.347Z,2.28
2022-09-21T19:31:17.967Z,2.17
2022-09-21T19:33:50.476Z,5.13
2022-09-21T19:36:19.783Z,4.75
2022-09-21T19:38:47.124Z,3.97
2022-09-21T19:41:24.238Z,3.38
2022-09-21T19:44:01.635Z,3.20
2022-09-21T19:46:40.373Z,6.13
2022-09-21T19:49:19.606Z,6.07
2022-09-21T19:51:56.890Z,6.63
2022-09-21T19:54:45.648Z,3.40
2022-09-21T19:57:35.458Z,4.30
2022-09-21T20:00:04.787Z,7.30
2022-09-21T20:02:39.534Z,4.82
2022-09-21T20:05:15.182Z,3.55
2022-09-21T20:07:53.423Z,3.65
2022-09-21T20:10:22.348Z,4.05
2022-09-21T20:12:59.564Z,2.38
2022-09-21T20:15:49.711Z,4.75
2022-09-21T20:18:41.891Z,5.15
2022-09-21T20:21:13.554Z,2.55
2022-09-21T20:23:41.395Z,2.42
2022-09-21T20:26:23.064Z,4.40
2022-09-21T20:28:52.182Z,3.13
2022-09-21T20:31:24.782Z,5.28
2022-09-21T20:33:52.019Z,4.18
2022-09-21T20:36:19.158Z,8.15
2022-09-21T20:38:46.441Z,4.10
2022-09-21T20:41:16.144Z,3.83
2022-09-21T20:43:43.652Z,3.50
2022-09-21T20:46:11.703Z,3.33
2022-09-21T20:48:40.141Z,2.08
2022-09-21T20:51:07.146Z,6.03
2022-09-21T20:53:35.018Z,2.50
2022-09-21T20:56:02.988Z,3.05
2022-09-21T20:58:30.687Z,4.25
2022-09-21T21:01:04.766Z,2.90
2022-09-21T21:03:32.064Z,2.78
2022-09-21T21:06:18.804Z,4.60
2022-09-21T21:08:46.821Z,7.28
2022-09-21T21:11:14.818Z,3.78
2022-09-21T21:13:42.588Z,5.93
2022-09-21T21:16:12.434Z,12.30
2022-09-21T21:18:41.635Z,6.10
2022-09-21T21:21:09.411Z,8.00
2022-09-21T21:23:57.117Z,3.70
2022-09-21T21:26:43.961Z,4.03
2022-09-21T21:29:11.699Z,10.10
2022-09-21T21:31:40.035Z,12.90
2022-09-21T21:34:07.264Z,13.02
2022-09-21T21:36:34.550Z,12.00
2022-09-21T21:39:01.681Z,7.22
2022-09-21T21:41:31.238Z,7.03
2022-09-21T21:43:59.608Z,5.47
2022-09-21T21:46:27.137Z,4.45
2022-09-21T21:48:54.562Z,4.88
2022-09-21T21:51:22.020Z,3.35
2022-09-21T21:53:49.461Z,3.72
2022-09-21T21:56:18.972Z,3.13
2022-09-21T21:58:46.243Z,3.25
2022-09-21T22:01:19.366Z,4.15
2022-09-21T22:03:47.163Z,3.80
2022-09-21T22:06:14.941Z,4.88
2022-09-21T22:08:43.327Z,3.40
2022-09-21T22:11:11.175Z,2.63
2022-09-21T22:13:40.170Z,3.60
2022-09-21T22:16:10.469Z,4.47
2022-09-21T22:18:39.199Z,3.90
2022-09-21T22:21:12.988Z,4.15
2022-09-21T22:23:40.896Z,2.88
2022-09-21T22:26:12.453Z,4.10
2022-09-21T22:28:41.789Z,3.55
2022-09-21T22:31:12.653Z,3.65
2022-09-21T22:33:40.291Z,4.82
2022-09-21T22:36:10.717Z,6.28
2022-09-21T22:38:42.791Z,3.35
2022-09-21T22:41:13.171Z,3.97
2022-09-21T22:43:41.455Z,4.00
2022-09-21T22:46:09.286Z,3.92
2022-09-21T22:48:37.549Z,4.18
2022-09-21T22:51:07.315Z,3.40
2022-09-21T22:53:35.323Z,2.92
2022-09-21T22:56:06.474Z,3.70
2022-09-21T22:58:35.902Z,3.85
2022-09-21T23:01:04.390Z,7.22
2022-09-21T23:03:31.572Z,2.97
2022-09-21T23:05:59.774Z,3.13
2022-09-21T23:08:28.701Z,4.18
2022-09-21T23:10:57.164Z,5.40
2022-09-21T23:13:24.790Z,4.53
2022-09-21T23:15:52.612Z,4.82
2022-09-21T23:18:20.031Z,2.85
2022-09-21T23:21:00.846Z,4.22
2022-09-21T23:23:29.183Z,5.72
2022-09-21T23:26:06.679Z,3.50
2022-09-21T23:28:35.775Z,5.13
2022-09-21T23:31:05.671Z,2.83
2022-09-21T23:33:35.660Z,3.30
2022-09-21T23:36:04.414Z,3.50
2022-09-21T23:38:32.650Z,4.43
2022-09-21T23:41:06.671Z,3.63
2022-09-21T23:43:35.520Z,3.45
2022-09-21T23:46:04.760Z,4.45
2022-09-21T23:48:33.154Z,4.13
2022-09-21T23:51:02.442Z,4.22
2022-09-21T23:53:29.836Z,2.88
2022-09-21T23:55:57.836Z,3.15
2022-09-21T23:58:26.323Z,5.30
